Aviation Digital Data Service (ADDS)

Output produced by METARs form (1210 UTC 24 March 2017)
found at http://www.aviationweather.gov/adds/metars/
 
TAF LRTZ 241100Z 2412/2512 15010KT 9999 BKN200 
     TEMPO 2414/2418 SCT030 
     BECMG 2502/2504 03016KT BKN025 BKN080 
     PROB40 
     TEMPO 2505/2509 5000 -SHRA SCT010 BKN020CB OVC040 
     BECMG 2510/2512 BKN100
       
LRCK 241200Z 17013KT CAVOK 18/08 Q1022 NOSIG
TAF LRCK 241100Z 2412/2512 17010KT CAVOK 
     BECMG 2500/2502 02014KT 
     TEMPO 2502/2510 5000 -SHRA BKN015 SCT025CB BKN030
       
LRTC 241200Z 16015KT 9999 FEW042 19/05 Q1021
TAF LRTC 241100Z 2412/2421 17012KT 9999 SCT045
       
TAF LRBO 241100Z 2412/2512 22014KT 9999 SCT050 SCT200 
     BECMG 2422/2500 03016G26KT SCT034 BKN090
       
LRBC 241200Z 19011KT 9999 SCT050CB 19/09 Q1020 R16/09//95
TAF LRBC 241100Z 2412/2421 18008KT 5000 -RA BKN045 
     TEMPO 2412/2415 VRB15G25KT 3000 TSRA BKN010 SCT025CB BKN030 
     BECMG 2415/2417 36012KT BKN015 BKN035
       
LRIA 241200Z 09005KT 060V130 CAVOK 20/05 Q1019
TAF LRIA 241100Z 2412/2421 10006KT CAVOK 
     TEMPO 2412/2415 5000 -SHRA SCT025CB BKN035 
     BECMG 2415/2417 34012KT 3000 RA BKN010 BKN030
       
LRSV 241200Z 34016G33KT 6000 TSRA FEW015 BKN040CB 12/08 Q1021
TAF LRSV 241100Z 2412/2421 04010KT 5000 -RA BKN015 BKN035 
     TEMPO 2412/2414 VRB15G25KT 3000 TSRA BKN010 SCT025CB BKN030 
     BECMG 2414/2416 33012KT
       
LROP 241200Z 23007KT CAVOK 21/M03 Q1021 NOSIG
TAF LROP 241100Z 2412/2512 25008KT CAVOK 
     BECMG 2421/2423 08015KT 
     TEMPO 2502/2510 08020G30KT
       
LRBS 241200Z 25006KT 210V280 CAVOK 21/M00 Q1021 NOSIG
TAF LRBS 241100Z 2412/2512 25008KT CAVOK 
     BECMG 2421/2423 08015KT 
     TEMPO 2502/2510 08020G30KT
       
LRCV 241200Z 26006KT 220V300 CAVOK 21/00 Q1021
TAF LRCV 241100Z 2412/2421 VRB04KT CAVOK
       
LRSB 241200Z VRB02KT CAVOK 23/02 Q1020
TAF LRSB 241100Z 2412/2512 VRB04KT CAVOK 
     BECMG 2500/2502 3000 BR BKN010 
     TEMPO 2504/2508 1500 -RA BR BKN005 BKN040 
     BECMG 2508/2510 9999 NSW BKN040
       
LRAR 241200Z 25009KT CAVOK 23/07 Q1021
TAF LRAR 241100Z 2412/2421 30010KT CAVOK 
     BECMG 2418/2420 02014KT
       
LRCL 241200Z 03005KT 340V060 9999 FEW065 22/07 Q1020
TAF LRCL 241100Z 2412/2421 VRB04KT CAVOK 
     TEMPO 2412/2417 SCT035CB 
     TEMPO 2418/2421 5000 -DZRA BKN010 BKN030
       
LRTR 241200Z 24006KT 200V300 CAVOK 23/08 Q1021
TAF LRTR 241100Z 2412/2512 30007KT CAVOK 
     BECMG 2418/2420 01012KT 
     PROB40 
     TEMPO 2500/2504 01015G25KT
       
LRTM 241200Z VRB05KT CAVOK 23/07 Q1020
TAF LRTM 241100Z 2412/2421 VRB04KT CAVOK 
     PROB40 
     TEMPO 2412/2417 SCT040CB
       
LRBM 241200Z 28009KT 250V310 9999 FEW038 20/09 Q1020
TAF LRBM 241100Z 2412/2421 30008KT 9999 SCT035 
     TEMPO 2414/2418 SCT035CB
       
LRSM 241200Z 04005KT 330V070 CAVOK 20/10 Q1020
TAF LRSM 241100Z 2412/2421 VRB03KT CAVOK 
     BECMG 2412/2414 35012KT 
     PROB30 2414/2417 SCT035CB
       
LROD 241200Z 21013KT CAVOK 22/07 Q1020
TAF LROD 241100Z 2412/2421 23012KT CAVOK 
     PROB40 2414/2417 SCT030CB
       
LRCT 241200Z 09005KT 9999 FEW080 23/07 Q1020 BLU BLU
TAF LRCT 241100Z 2412/2512 33005KT 9999 SCT080 
     PROB30 
     TEMPO 2413/2417 7000 -SHRA SCT050CB 
     BECMG 2508/2510 33012KT BKN050